sensor_id;sensor_type;location;lat;lon;timestamp;pressure;altitude;pressure_sealevel;temperature;humidity
41140;BME280;26881;48.784;9.192;2022-09-09T00:03:04;98245.22;;;17.37;63.63
41140;BME280;26881;48.784;9.192;2022-09-09T00:14:03;98237.94;;;17.39;63.43
41140;BME280;26881;48.784;9.192;2022-09-09T00:19:33;98234.22;;;17.32;63.86
41140;BME280;26881;48.784;9.192;2022-09-09T00:25:10;98233.66;;;17.38;63.40
41140;BME280;26881;48.784;9.192;2022-09-09T00:30:34;98236.16;;;17.39;63.23
41140;BME280;26881;48.784;9.192;2022-09-09T00:35:58;98228.78;;;17.33;63.46
41140;BME280;26881;48.784;9.192;2022-09-09T00:46:56;98215.69;;;17.51;62.55
41140;BME280;26881;48.784;9.192;2022-09-09T00:52:49;98232.81;;;17.37;62.63
41140;BME280;26881;48.784;9.192;2022-09-09T00:58:13;98231.28;;;17.44;62.29
41140;BME280;26881;48.784;9.192;2022-09-09T01:03:55;98228.94;;;17.41;61.67
41140;BME280;26881;48.784;9.192;2022-09-09T01:09:42;98223.88;;;17.58;61.49
41140;BME280;26881;48.784;9.192;2022-09-09T01:15:14;98224.16;;;17.55;60.63
41140;BME280;26881;48.784;9.192;2022-09-09T01:31:42;98246.16;;;17.45;60.84
41140;BME280;26881;48.784;9.192;2022-09-09T01:37:09;98250.31;;;17.58;60.71
41140;BME280;26881;48.784;9.192;2022-09-09T01:42:31;98240.00;;;17.55;61.05
41140;BME280;26881;48.784;9.192;2022-09-09T01:47:53;98239.31;;;17.62;60.72
41140;BME280;26881;48.784;9.192;2022-09-09T01:53:17;98235.84;;;17.52;60.81
41140;BME280;26881;48.784;9.192;2022-09-09T02:10:28;98217.34;;;17.52;60.55
41140;BME280;26881;48.784;9.192;2022-09-09T02:21:13;98243.97;;;17.12;62.55
41140;BME280;26881;48.784;9.192;2022-09-09T02:26:39;98247.03;;;17.26;62.60
41140;BME280;26881;48.784;9.192;2022-09-09T02:32:06;98237.28;;;17.17;62.33
41140;BME280;26881;48.784;9.192;2022-09-09T02:37:35;98261.78;;;16.90;63.44
41140;BME280;26881;48.784;9.192;2022-09-09T02:42:58;98246.06;;;16.79;63.92
41140;BME280;26881;48.784;9.192;2022-09-09T02:48:28;98243.84;;;16.84;63.76
41140;BME280;26881;48.784;9.192;2022-09-09T02:54:25;98240.19;;;16.75;64.12
41140;BME280;26881;48.784;9.192;2022-09-09T02:59:49;98239.34;;;16.75;64.40
41140;BME280;26881;48.784;9.192;2022-09-09T03:05:11;98238.09;;;16.69;65.16
41140;BME280;26881;48.784;9.192;2022-09-09T03:10:34;98214.38;;;16.79;64.60
41140;BME280;26881;48.784;9.192;2022-09-09T03:15:56;98224.91;;;16.69;65.39
41140;BME280;26881;48.784;9.192;2022-09-09T03:21:18;98231.72;;;16.72;65.10
41140;BME280;26881;48.784;9.192;2022-09-09T03:26:41;98224.75;;;16.71;64.97
41140;BME280;26881;48.784;9.192;2022-09-09T03:32:03;98222.00;;;16.82;65.07
41140;BME280;26881;48.784;9.192;2022-09-09T03:37:25;98222.00;;;16.82;65.07
41140;BME280;26881;48.784;9.192;2022-09-09T03:42:46;98215.91;;;16.91;64.79
41140;BME280;26881;48.784;9.192;2022-09-09T03:48:09;98221.03;;;17.02;65.04
41140;BME280;26881;48.784;9.192;2022-09-09T03:53:33;98211.44;;;17.21;64.66
41140;BME280;26881;48.784;9.192;2022-09-09T03:58:55;98216.00;;;17.28;63.54
41140;BME280;26881;48.784;9.192;2022-09-09T04:04:17;98215.16;;;17.28;63.10
41140;BME280;26881;48.784;9.192;2022-09-09T04:09:39;98223.81;;;17.20;66.36
41140;BME280;26881;48.784;9.192;2022-09-09T04:15:01;98216.28;;;17.25;64.88
41140;BME280;26881;48.784;9.192;2022-09-09T04:20:23;98222.09;;;17.39;64.01
41140;BME280;26881;48.784;9.192;2022-09-09T04:25:46;98226.94;;;17.43;63.06
41140;BME280;26881;48.784;9.192;2022-09-09T04:31:17;98236.28;;;17.47;62.90
41140;BME280;26881;48.784;9.192;2022-09-09T04:36:40;98239.91;;;17.46;62.71
41140;BME280;26881;48.784;9.192;2022-09-09T04:42:02;98247.13;;;17.44;62.99
41140;BME280;26881;48.784;9.192;2022-09-09T04:47:24;98249.81;;;17.25;64.84
41140;BME280;26881;48.784;9.192;2022-09-09T04:52:46;98246.22;;;17.16;65.59
41140;BME280;26881;48.784;9.192;2022-09-09T04:58:08;98250.25;;;16.91;66.88
41140;BME280;26881;48.784;9.192;2022-09-09T05:03:30;98254.41;;;16.84;67.15
41140;BME280;26881;48.784;9.192;2022-09-09T05:08:52;98258.97;;;16.82;67.08
41140;BME280;26881;48.784;9.192;2022-09-09T05:14:14;98262.06;;;17.06;65.80
41140;BME280;26881;48.784;9.192;2022-09-09T05:19:36;98258.84;;;17.13;65.69
41140;BME280;26881;48.784;9.192;2022-09-09T05:24:58;98256.91;;;17.15;64.79
41140;BME280;26881;48.784;9.192;2022-09-09T05:30:21;98259.97;;;17.10;64.43
41140;BME280;26881;48.784;9.192;2022-09-09T05:35:44;98269.59;;;17.11;65.50
41140;BME280;26881;48.784;9.192;2022-09-09T05:41:07;98263.03;;;17.25;65.60
41140;BME280;26881;48.784;9.192;2022-09-09T05:46:28;98274.56;;;17.24;66.20
41140;BME280;26881;48.784;9.192;2022-09-09T05:51:51;98268.16;;;17.36;65.18
41140;BME280;26881;48.784;9.192;2022-09-09T05:57:12;98268.72;;;17.40;64.68
41140;BME280;26881;48.784;9.192;2022-09-09T06:02:34;98271.22;;;17.41;64.80
41140;BME280;26881;48.784;9.192;2022-09-09T06:07:58;98278.41;;;17.59;64.04
41140;BME280;26881;48.784;9.192;2022-09-09T06:13:20;98273.69;;;17.62;63.93
41140;BME280;26881;48.784;9.192;2022-09-09T06:18:42;98266.00;;;17.69;63.94
41140;BME280;26881;48.784;9.192;2022-09-09T06:24:05;98275.72;;;17.78;63.73
41140;BME280;26881;48.784;9.192;2022-09-09T06:29:28;98280.59;;;17.83;63.44
41140;BME280;26881;48.784;9.192;2022-09-09T06:34:50;98279.66;;;17.84;63.98
41140;BME280;26881;48.784;9.192;2022-09-09T06:40:12;98289.81;;;17.88;63.73
41140;BME280;26881;48.784;9.192;2022-09-09T06:45:34;98281.44;;;17.93;63.47
41140;BME280;26881;48.784;9.192;2022-09-09T06:51:10;98286.13;;;17.99;63.97
41140;BME280;26881;48.784;9.192;2022-09-09T06:56:36;98281.78;;;18.08;63.29
41140;BME280;26881;48.784;9.192;2022-09-09T07:01:59;98286.81;;;18.01;63.53
41140;BME280;26881;48.784;9.192;2022-09-09T07:07:21;98285.56;;;18.05;63.48
41140;BME280;26881;48.784;9.192;2022-09-09T07:12:42;98290.41;;;18.10;63.74
41140;BME280;26881;48.784;9.192;2022-09-09T07:18:04;98290.81;;;18.15;63.35
41140;BME280;26881;48.784;9.192;2022-09-09T07:23:26;98290.94;;;18.23;62.89
41140;BME280;26881;48.784;9.192;2022-09-09T07:28:49;98289.06;;;18.33;62.61
41140;BME280;26881;48.784;9.192;2022-09-09T07:34:11;98292.00;;;18.30;63.02
41140;BME280;26881;48.784;9.192;2022-09-09T07:39:33;98293.78;;;18.40;63.66
41140;BME280;26881;48.784;9.192;2022-09-09T07:44:55;98278.97;;;18.47;62.96
41140;BME280;26881;48.784;9.192;2022-09-09T07:50:16;98288.94;;;18.53;63.07
41140;BME280;26881;48.784;9.192;2022-09-09T07:55:38;98292.72;;;18.50;63.70
41140;BME280;26881;48.784;9.192;2022-09-09T08:01:06;98296.81;;;18.45;63.37
41140;BME280;26881;48.784;9.192;2022-09-09T08:06:31;98302.94;;;18.45;64.80
41140;BME280;26881;48.784;9.192;2022-09-09T08:11:56;98302.63;;;18.58;64.10
41140;BME280;26881;48.784;9.192;2022-09-09T08:17:17;98300.22;;;18.65;64.49
41140;BME280;26881;48.784;9.192;2022-09-09T08:22:39;98293.75;;;18.77;61.93
41140;BME280;26881;48.784;9.192;2022-09-09T08:28:01;98309.25;;;18.90;62.41
41140;BME280;26881;48.784;9.192;2022-09-09T08:33:24;98324.19;;;18.91;63.00
41140;BME280;26881;48.784;9.192;2022-09-09T08:38:48;98309.34;;;18.98;61.92
41140;BME280;26881;48.784;9.192;2022-09-09T08:44:18;98305.88;;;19.15;60.60
41140;BME280;26881;48.784;9.192;2022-09-09T08:55:25;98308.84;;;19.30;60.59
41140;BME280;26881;48.784;9.192;2022-09-09T09:12:23;98297.63;;;19.63;56.02
41140;BME280;26881;48.784;9.192;2022-09-09T09:17:45;98298.78;;;19.60;56.08
41140;BME280;26881;48.784;9.192;2022-09-09T09:23:15;98304.63;;;19.64;55.39
41140;BME280;26881;48.784;9.192;2022-09-09T09:28:41;98297.72;;;19.71;56.50
41140;BME280;26881;48.784;9.192;2022-09-09T09:34:02;98331.59;;;19.59;59.79
41140;BME280;26881;48.784;9.192;2022-09-09T09:39:32;98325.03;;;19.09;60.46
41140;BME280;26881;48.784;9.192;2022-09-09T09:45:34;98316.38;;;18.89;59.73
41140;BME280;26881;48.784;9.192;2022-09-09T09:50:59;98299.81;;;19.05;61.07
41140;BME280;26881;48.784;9.192;2022-09-09T09:56:28;98291.25;;;19.29;58.71
41140;BME280;26881;48.784;9.192;2022-09-09T10:01:50;98269.09;;;19.56;57.10
41140;BME280;26881;48.784;9.192;2022-09-09T10:07:19;98269.09;;;19.74;56.37
41140;BME280;26881;48.784;9.192;2022-09-09T10:40:48;98254.22;;;20.58;56.18
41140;BME280;26881;48.784;9.192;2022-09-09T10:46:26;98258.06;;;20.72;56.15
41140;BME280;26881;48.784;9.192;2022-09-09T10:57:29;98261.22;;;20.68;56.27
41140;BME280;26881;48.784;9.192;2022-09-09T11:02:58;98252.25;;;20.69;57.03
41140;BME280;26881;48.784;9.192;2022-09-09T11:08:26;98248.78;;;20.84;55.78
41140;BME280;26881;48.784;9.192;2022-09-09T11:14:13;98239.97;;;20.92;55.68
41140;BME280;26881;48.784;9.192;2022-09-09T11:19:41;98255.41;;;20.80;55.91
41140;BME280;26881;48.784;9.192;2022-09-09T11:25:14;98283.72;;;20.47;50.46
41140;BME280;26881;48.784;9.192;2022-09-09T11:36:34;98286.03;;;20.16;49.22
41140;BME280;26881;48.784;9.192;2022-09-09T11:42:19;98298.75;;;20.04;51.41
41140;BME280;26881;48.784;9.192;2022-09-09T11:47:51;98299.88;;;19.93;51.21
41140;BME280;26881;48.784;9.192;2022-09-09T11:58:44;98289.66;;;19.81;52.40
41140;BME280;26881;48.784;9.192;2022-09-09T12:04:21;98289.56;;;19.90;52.89
41140;BME280;26881;48.784;9.192;2022-09-09T12:09:54;98289.38;;;20.18;51.11
41140;BME280;26881;48.784;9.192;2022-09-09T12:15:22;98281.28;;;20.28;50.83
41140;BME280;26881;48.784;9.192;2022-09-09T12:27:02;98274.03;;;20.38;48.97
41140;BME280;26881;48.784;9.192;2022-09-09T12:32:28;98260.38;;;20.67;48.51
41140;BME280;26881;48.784;9.192;2022-09-09T12:38:02;98251.13;;;20.88;47.36
41140;BME280;26881;48.784;9.192;2022-09-09T12:43:26;98249.16;;;20.98;46.15
41140;BME280;26881;48.784;9.192;2022-09-09T12:48:48;98254.44;;;20.90;45.58
41140;BME280;26881;48.784;9.192;2022-09-09T12:54:13;98246.78;;;20.78;46.51
41140;BME280;26881;48.784;9.192;2022-09-09T12:59:38;98240.78;;;20.68;47.29
41140;BME280;26881;48.784;9.192;2022-09-09T13:05:14;98224.84;;;20.68;47.73
41140;BME280;26881;48.784;9.192;2022-09-09T13:10:43;98222.50;;;20.81;47.82
41140;BME280;26881;48.784;9.192;2022-09-09T13:21:53;98210.25;;;20.97;46.78
41140;BME280;26881;48.784;9.192;2022-09-09T13:27:28;98219.38;;;21.02;46.91
41140;BME280;26881;48.784;9.192;2022-09-09T13:38:27;98205.59;;;21.15;47.09
41140;BME280;26881;48.784;9.192;2022-09-09T13:43:51;98199.28;;;21.24;46.30
41140;BME280;26881;48.784;9.192;2022-09-09T13:54:39;98193.13;;;21.16;45.57
41140;BME280;26881;48.784;9.192;2022-09-09T14:00:01;98193.78;;;21.18;44.83
41140;BME280;26881;48.784;9.192;2022-09-09T14:05:27;98198.13;;;21.35;44.87
41140;BME280;26881;48.784;9.192;2022-09-09T14:10:51;98192.31;;;21.40;43.92
41140;BME280;26881;48.784;9.192;2022-09-09T14:16:13;98199.94;;;21.43;44.29
41140;BME280;26881;48.784;9.192;2022-09-09T14:21:35;98176.63;;;21.53;43.66
41140;BME280;26881;48.784;9.192;2022-09-09T14:26:57;98179.50;;;21.52;43.17
41140;BME280;26881;48.784;9.192;2022-09-09T14:32:19;98185.28;;;21.39;43.76
41140;BME280;26881;48.784;9.192;2022-09-09T14:37:41;98185.13;;;21.32;44.19
41140;BME280;26881;48.784;9.192;2022-09-09T14:43:04;98180.31;;;21.27;43.62
41140;BME280;26881;48.784;9.192;2022-09-09T14:48:26;98179.34;;;21.29;43.83
41140;BME280;26881;48.784;9.192;2022-09-09T14:53:51;98177.31;;;21.39;43.38
41140;BME280;26881;48.784;9.192;2022-09-09T14:59:13;98175.34;;;21.41;43.44
41140;BME280;26881;48.784;9.192;2022-09-09T15:04:35;98193.31;;;21.47;41.95
41140;BME280;26881;48.784;9.192;2022-09-09T15:09:57;98193.47;;;21.45;42.17
41140;BME280;26881;48.784;9.192;2022-09-09T15:15:19;98192.63;;;21.45;42.10
41140;BME280;26881;48.784;9.192;2022-09-09T15:20:44;98192.94;;;21.34;41.75
41140;BME280;26881;48.784;9.192;2022-09-09T15:26:08;98194.63;;;21.26;43.20
41140;BME280;26881;48.784;9.192;2022-09-09T15:31:31;98198.75;;;21.21;42.83
41140;BME280;26881;48.784;9.192;2022-09-09T15:36:53;98190.97;;;21.19;44.29
41140;BME280;26881;48.784;9.192;2022-09-09T15:42:16;98191.97;;;21.18;44.71
41140;BME280;26881;48.784;9.192;2022-09-09T15:47:38;98192.66;;;21.12;44.50
41140;BME280;26881;48.784;9.192;2022-09-09T15:53:00;98199.13;;;21.01;45.13
41140;BME280;26881;48.784;9.192;2022-09-09T15:58:22;98198.94;;;20.95;46.02
41140;BME280;26881;48.784;9.192;2022-09-09T16:03:44;98198.94;;;20.95;44.49
41140;BME280;26881;48.784;9.192;2022-09-09T16:09:08;98192.47;;;20.97;44.88
41140;BME280;26881;48.784;9.192;2022-09-09T16:14:32;98209.44;;;20.96;44.02
41140;BME280;26881;48.784;9.192;2022-09-09T16:19:57;98224.38;;;20.97;45.59
41140;BME280;26881;48.784;9.192;2022-09-09T16:25:19;98214.91;;;20.95;45.02
41140;BME280;26881;48.784;9.192;2022-09-09T16:30:41;98232.34;;;20.89;45.09
41140;BME280;26881;48.784;9.192;2022-09-09T16:36:08;98241.97;;;20.82;45.07
41140;BME280;26881;48.784;9.192;2022-09-09T16:41:31;98265.03;;;20.81;46.91
41140;BME280;26881;48.784;9.192;2022-09-09T16:46:53;98268.16;;;20.60;46.49
41140;BME280;26881;48.784;9.192;2022-09-09T16:52:21;98278.06;;;20.50;46.76
41140;BME280;26881;48.784;9.192;2022-09-09T16:57:43;98279.50;;;20.36;47.55
41140;BME280;26881;48.784;9.192;2022-09-09T17:03:04;98286.03;;;20.16;48.30
41140;BME280;26881;48.784;9.192;2022-09-09T17:08:26;98276.69;;;20.04;47.97
41140;BME280;26881;48.784;9.192;2022-09-09T17:13:49;98284.31;;;19.98;47.53
41140;BME280;26881;48.784;9.192;2022-09-09T17:19:12;98289.44;;;19.74;48.27
41140;BME280;26881;48.784;9.192;2022-09-09T17:24:35;98284.91;;;19.66;49.11
41140;BME280;26881;48.784;9.192;2022-09-09T17:29:57;98280.38;;;19.58;49.39
41140;BME280;26881;48.784;9.192;2022-09-09T17:35:19;98282.97;;;19.50;50.53
41140;BME280;26881;48.784;9.192;2022-09-09T17:40:41;98284.41;;;19.45;50.70
41140;BME280;26881;48.784;9.192;2022-09-09T17:46:15;98304.94;;;19.43;51.36
41140;BME280;26881;48.784;9.192;2022-09-09T17:51:38;98311.50;;;19.30;51.64
41140;BME280;26881;48.784;9.192;2022-09-09T17:57:00;98310.34;;;19.33;51.92
41140;BME280;26881;48.784;9.192;2022-09-09T18:02:22;98310.72;;;19.38;52.17
41140;BME280;26881;48.784;9.192;2022-09-09T18:07:44;98307.19;;;19.11;53.61
41140;BME280;26881;48.784;9.192;2022-09-09T18:13:05;98308.34;;;18.99;54.25
41140;BME280;26881;48.784;9.192;2022-09-09T18:18:30;98322.09;;;19.12;53.59
41140;BME280;26881;48.784;9.192;2022-09-09T18:23:52;98323.16;;;19.20;53.57
41140;BME280;26881;48.784;9.192;2022-09-09T18:29:21;98335.88;;;18.98;54.68
41140;BME280;26881;48.784;9.192;2022-09-09T18:34:45;98341.53;;;19.03;54.55
41140;BME280;26881;48.784;9.192;2022-09-09T18:40:07;98341.75;;;18.92;55.32
41140;BME280;26881;48.784;9.192;2022-09-09T18:45:29;98347.81;;;18.84;55.83
41140;BME280;26881;48.784;9.192;2022-09-09T18:50:51;98365.28;;;18.77;56.27
41140;BME280;26881;48.784;9.192;2022-09-09T18:56:13;98359.09;;;18.86;55.78
41140;BME280;26881;48.784;9.192;2022-09-09T19:01:34;98357.34;;;18.95;55.33
41140;BME280;26881;48.784;9.192;2022-09-09T19:06:57;98357.66;;;18.92;55.33
41140;BME280;26881;48.784;9.192;2022-09-09T19:12:19;98355.75;;;18.84;55.44
41140;BME280;26881;48.784;9.192;2022-09-09T19:17:41;98351.31;;;18.75;55.64
41140;BME280;26881;48.784;9.192;2022-09-09T19:23:04;98364.44;;;18.77;55.74
41140;BME280;26881;48.784;9.192;2022-09-09T19:28:25;98360.03;;;18.58;56.28
41140;BME280;26881;48.784;9.192;2022-09-09T19:33:48;98372.59;;;18.56;57.11
41140;BME280;26881;48.784;9.192;2022-09-09T19:39:12;98375.63;;;18.61;57.63
41140;BME280;26881;48.784;9.192;2022-09-09T19:44:34;98371.72;;;18.65;57.37
41140;BME280;26881;48.784;9.192;2022-09-09T19:49:56;98376.66;;;18.50;57.95
41140;BME280;26881;48.784;9.192;2022-09-09T19:55:18;98380.72;;;18.44;58.41
41140;BME280;26881;48.784;9.192;2022-09-09T20:00:40;98388.13;;;18.41;58.33
41140;BME280;26881;48.784;9.192;2022-09-09T20:06:07;98391.47;;;18.43;57.75
41140;BME280;26881;48.784;9.192;2022-09-09T20:11:29;98395.69;;;18.26;58.94
41140;BME280;26881;48.784;9.192;2022-09-09T20:16:51;98394.28;;;18.31;58.93
41140;BME280;26881;48.784;9.192;2022-09-09T20:22:12;98407.50;;;18.31;58.93
41140;BME280;26881;48.784;9.192;2022-09-09T20:27:35;98406.94;;;18.38;58.52
41140;BME280;26881;48.784;9.192;2022-09-09T20:32:56;98406.66;;;18.41;58.60
41140;BME280;26881;48.784;9.192;2022-09-09T20:38:18;98410.00;;;18.43;58.71
41140;BME280;26881;48.784;9.192;2022-09-09T20:43:45;98419.69;;;18.15;58.88
41140;BME280;26881;48.784;9.192;2022-09-09T20:49:10;98426.25;;;18.01;59.68
41140;BME280;26881;48.784;9.192;2022-09-09T20:54:32;98422.59;;;18.21;58.98
41140;BME280;26881;48.784;9.192;2022-09-09T20:59:55;98424.38;;;18.30;58.56
41140;BME280;26881;48.784;9.192;2022-09-09T21:05:17;98423.97;;;18.35;58.36
41140;BME280;26881;48.784;9.192;2022-09-09T21:10:44;98423.66;;;18.38;58.04
41140;BME280;26881;48.784;9.192;2022-09-09T21:16:12;98423.00;;;18.26;58.41
41140;BME280;26881;48.784;9.192;2022-09-09T21:21:34;98413.97;;;18.09;59.01
41140;BME280;26881;48.784;9.192;2022-09-09T21:26:56;98426.69;;;17.86;59.81
41140;BME280;26881;48.784;9.192;2022-09-09T21:32:20;98426.78;;;17.75;60.25
41140;BME280;26881;48.784;9.192;2022-09-09T21:37:41;98430.84;;;17.79;60.34
41140;BME280;26881;48.784;9.192;2022-09-09T21:43:04;98426.09;;;17.73;60.50
41140;BME280;26881;48.784;9.192;2022-09-09T21:48:26;98425.97;;;17.65;61.11
41140;BME280;26881;48.784;9.192;2022-09-09T21:53:48;98428.31;;;17.48;61.48
41140;BME280;26881;48.784;9.192;2022-09-09T21:59:10;98427.09;;;17.62;61.05
41140;BME280;26881;48.784;9.192;2022-09-09T22:04:35;98426.78;;;17.56;61.56
41140;BME280;26881;48.784;9.192;2022-09-09T22:09:57;98425.13;;;17.74;61.12
41140;BME280;26881;48.784;9.192;2022-09-09T22:15:19;98418.19;;;17.83;60.63
41140;BME280;26881;48.784;9.192;2022-09-09T22:20:43;98414.56;;;17.94;60.13
41140;BME280;26881;48.784;9.192;2022-09-09T22:26:06;98426.25;;;18.01;60.09
41140;BME280;26881;48.784;9.192;2022-09-09T22:31:27;98417.31;;;18.02;59.89
41140;BME280;26881;48.784;9.192;2022-09-09T22:36:49;98416.50;;;18.01;60.36
41140;BME280;26881;48.784;9.192;2022-09-09T22:42:11;98420.53;;;17.96;60.73
41140;BME280;26881;48.784;9.192;2022-09-09T22:47:34;98430.13;;;18.06;60.54
41140;BME280;26881;48.784;9.192;2022-09-09T22:52:56;98438.63;;;18.10;60.46
41140;BME280;26881;48.784;9.192;2022-09-09T22:58:17;98446.56;;;18.10;60.30
41140;BME280;26881;48.784;9.192;2022-09-09T23:03:40;98455.06;;;18.04;60.53
41140;BME280;26881;48.784;9.192;2022-09-09T23:09:02;98468.56;;;18.10;60.56
41140;BME280;26881;48.784;9.192;2022-09-09T23:14:24;98469.97;;;18.15;60.43
41140;BME280;26881;48.784;9.192;2022-09-09T23:19:47;98472.03;;;18.11;62.44
41140;BME280;26881;48.784;9.192;2022-09-09T23:25:17;98461.06;;;17.67;68.90
41140;BME280;26881;48.784;9.192;2022-09-09T23:30:40;98470.28;;;16.82;76.16
41140;BME280;26881;48.784;9.192;2022-09-09T23:36:05;98459.59;;;16.83;78.38
41140;BME280;26881;48.784;9.192;2022-09-09T23:41:29;98461.31;;;16.21;82.12
41140;BME280;26881;48.784;9.192;2022-09-09T23:46:51;98468.44;;;16.10;85.20
41140;BME280;26881;48.784;9.192;2022-09-09T23:52:13;98460.41;;;16.11;85.61
41140;BME280;26881;48.784;9.192;2022-09-09T23:57:35;98458.16;;;15.86;86.29
